createdAt,value
2019-02-26T00:02:00.473Z,5.81
2019-02-26T00:07:06.479Z,6.40
2019-02-26T00:12:14.089Z,6.75
2019-02-26T00:17:21.870Z,6.39
2019-02-26T00:22:29.942Z,6.33
2019-02-26T00:27:36.537Z,6.57
2019-02-26T00:32:44.160Z,6.05
2019-02-26T00:37:53.373Z,6.75
2019-02-26T00:43:00.309Z,6.40
2019-02-26T00:48:06.191Z,6.71
2019-02-26T00:53:17.125Z,6.12
2019-02-26T00:58:21.010Z,6.34
2019-02-26T01:03:28.614Z,6.14
2019-02-26T01:08:37.843Z,6.20
2019-02-26T01:13:43.370Z,6.29
2019-02-26T01:18:52.821Z,6.24
2019-02-26T01:23:59.594Z,6.57
2019-02-26T01:29:05.380Z,6.11
2019-02-26T01:34:14.051Z,6.11
2019-02-26T01:39:21.554Z,6.75
2019-02-26T01:44:30.128Z,6.23
2019-02-26T01:49:34.498Z,6.70
2019-02-26T01:54:42.143Z,6.68
2019-02-26T01:59:50.130Z,6.88
2019-02-26T02:04:57.850Z,6.47
2019-02-26T02:10:04.171Z,7.17
2019-02-26T02:15:12.405Z,6.54
2019-02-26T02:20:21.485Z,6.46
2019-02-26T02:25:28.968Z,6.65
2019-02-26T02:30:35.420Z,6.87
2019-02-26T02:35:40.458Z,6.74
2019-02-26T02:40:49.630Z,6.91
2019-02-26T02:45:56.461Z,7.10
2019-02-26T02:51:05.231Z,6.98
2019-02-26T02:56:10.631Z,6.41
2019-02-26T03:01:19.417Z,6.43
2019-02-26T03:06:24.998Z,6.37
2019-02-26T03:11:36.036Z,6.38
2019-02-26T03:16:39.950Z,6.69
2019-02-26T03:21:47.156Z,6.45
2019-02-26T03:26:52.756Z,6.35
2019-02-26T03:32:00.409Z,6.40
2019-02-26T03:37:08.966Z,6.45
2019-02-26T03:42:16.669Z,6.32
2019-02-26T03:47:22.382Z,6.62
2019-02-26T03:52:32.116Z,6.60
2019-02-26T03:57:41.087Z,6.09
2019-02-26T04:02:46.101Z,6.20
2019-02-26T04:07:53.240Z,6.15
2019-02-26T04:12:58.730Z,6.14
2019-02-26T04:18:06.351Z,6.24
2019-02-26T04:23:16.548Z,7.07
2019-02-26T04:28:21.197Z,7.05
2019-02-26T04:33:30.270Z,7.48
2019-02-26T04:38:35.963Z,7.70
2019-02-26T04:43:43.633Z,7.91
2019-02-26T04:48:51.224Z,7.92
2019-02-26T04:54:00.111Z,8.08
2019-02-26T04:59:07.057Z,7.50
2019-02-26T05:04:13.247Z,8.04
2019-02-26T05:09:22.236Z,7.78
2019-02-26T05:14:28.026Z,7.25
2019-02-26T05:19:36.538Z,7.18
2019-02-26T05:24:44.338Z,7.80
2019-02-26T05:29:52.423Z,8.45
2019-02-26T05:34:57.239Z,9.45
2019-02-26T05:40:07.101Z,9.69
2019-02-26T05:45:12.081Z,10.00
2019-02-26T05:50:19.692Z,13.44
2019-02-26T05:55:28.180Z,15.61
2019-02-26T06:00:34.568Z,14.12
2019-02-26T06:05:45.801Z,13.14
2019-02-26T06:10:49.381Z,12.39
2019-02-26T06:15:58.626Z,11.49
2019-02-26T06:21:04.205Z,10.73
2019-02-26T06:26:14.341Z,10.90
2019-02-26T06:31:21.459Z,9.86
2019-02-26T06:36:28.123Z,9.90
2019-02-26T06:41:33.517Z,9.44
2019-02-26T06:46:41.160Z,9.02
2019-02-26T06:51:49.831Z,8.56
2019-02-26T06:56:55.949Z,8.01
2019-02-26T07:02:03.559Z,7.97
2019-02-26T07:07:14.145Z,8.13
2019-02-26T07:12:20.003Z,7.56
2019-02-26T07:17:26.883Z,8.06
2019-02-26T07:22:32.793Z,8.18
2019-02-26T07:27:40.459Z,9.06
2019-02-26T07:32:48.218Z,8.20
2019-02-26T07:37:56.804Z,8.60
2019-02-26T07:43:04.901Z,8.99
2019-02-26T07:48:10.095Z,9.44
2019-02-26T07:53:19.705Z,9.17
2019-02-26T07:58:24.878Z,9.19
2019-02-26T08:03:32.485Z,9.27
2019-02-26T08:08:41.883Z,9.76
2019-02-26T08:13:49.308Z,9.41
2019-02-26T08:18:56.569Z,9.95
2019-02-26T08:24:01.663Z,9.67
2019-02-26T08:29:09.945Z,10.07
2019-02-26T08:34:16.462Z,9.20
2019-02-26T08:39:24.173Z,10.11
2019-02-26T08:44:31.808Z,9.74
2019-02-26T08:49:40.702Z,10.10
2019-02-26T08:54:46.658Z,10.25
2019-02-26T08:59:54.699Z,9.32
2019-02-26T09:05:02.626Z,9.99
2019-02-26T09:10:10.685Z,8.07
2019-02-26T09:15:15.794Z,8.04
2019-02-26T09:20:23.393Z,7.68
2019-02-26T09:25:31.625Z,10.25
2019-02-26T09:30:38.986Z,6.89
2019-02-26T09:35:47.320Z,6.31
2019-02-26T09:40:54.190Z,6.45
2019-02-26T09:45:59.672Z,6.24
2019-02-26T09:51:09.305Z,35.00
2019-02-26T09:56:14.436Z,7.95
2019-02-26T10:01:22.111Z,7.15
2019-02-26T10:06:29.699Z,8.01
2019-02-26T10:11:39.195Z,7.67
2019-02-26T10:16:46.708Z,8.23
2019-02-26T10:21:51.775Z,9.41
2019-02-26T10:27:02.833Z,8.17
2019-02-26T10:32:06.589Z,8.50
2019-02-26T10:37:14.189Z,9.23
2019-02-26T10:42:21.869Z,9.04
2019-02-26T10:47:30.599Z,9.42
2019-02-26T10:52:36.650Z,11.99
2019-02-26T10:57:44.284Z,11.83
2019-02-26T11:02:54.143Z,11.86
2019-02-26T11:08:01.900Z,12.65
2019-02-26T11:13:06.279Z,12.57
2019-02-26T11:18:15.105Z,11.44
2019-02-26T11:23:30.532Z,12.03
2019-02-26T11:28:32.667Z,11.38
2019-02-26T11:33:35.565Z,12.15
2019-02-26T11:38:44.516Z,11.73
2019-02-26T11:43:50.363Z,11.60
2019-02-26T11:48:57.987Z,11.19
2019-02-26T11:54:07.619Z,11.70
2019-02-26T11:59:14.469Z,10.52
2019-02-26T12:04:19.919Z,10.29
2019-02-26T12:09:30.011Z,9.05
2019-02-26T12:14:37.318Z,8.66
2019-02-26T12:19:41.927Z,8.70
2019-02-26T12:24:53.055Z,8.82
2019-02-26T12:29:56.757Z,8.47
2019-02-26T12:35:05.897Z,8.07
2019-02-26T12:40:13.011Z,8.60
2019-02-26T12:45:18.898Z,8.79
2019-02-26T12:50:29.565Z,9.16
2019-02-26T12:55:35.851Z,9.52
2019-02-26T13:00:42.026Z,10.03
2019-02-26T13:05:49.143Z,8.91
2019-02-26T13:10:57.888Z,8.09
2019-02-26T13:16:02.262Z,7.42
2019-02-26T13:21:13.462Z,7.16
2019-02-26T13:26:19.630Z,6.84
2019-02-26T13:31:24.254Z,6.05
2019-02-26T13:36:35.113Z,6.88
2019-02-26T13:41:39.254Z,6.48
2019-02-26T13:46:46.643Z,6.84
2019-02-26T13:51:54.313Z,6.17
2019-02-26T13:57:01.988Z,5.92
2019-02-26T14:02:09.586Z,5.61
2019-02-26T14:07:17.312Z,5.93
2019-02-26T14:12:24.896Z,6.17
2019-02-26T14:17:32.586Z,5.59
2019-02-26T14:22:40.176Z,5.06
2019-02-26T14:27:47.881Z,4.59
2019-02-26T14:32:55.479Z,5.10
2019-02-26T14:38:03.105Z,4.17
2019-02-26T14:43:10.718Z,3.82
2019-02-26T14:48:18.384Z,4.74
2019-02-26T14:53:27.593Z,4.78
2019-02-26T14:58:33.226Z,5.22
2019-02-26T15:03:40.844Z,5.54
2019-02-26T15:08:48.653Z,5.41
2019-02-26T15:13:56.301Z,5.68
2019-02-26T15:19:03.998Z,5.23
2019-02-26T15:24:11.622Z,5.07
2019-02-26T15:29:19.298Z,5.39
2019-02-26T15:34:26.902Z,4.74
2019-02-26T15:39:34.558Z,5.26
2019-02-26T15:44:42.162Z,5.10
2019-02-26T15:49:49.831Z,5.13
2019-02-26T15:54:57.643Z,5.19
2019-02-26T16:00:06.631Z,4.57
2019-02-26T16:05:11.766Z,5.04
2019-02-26T16:10:22.055Z,4.73
2019-02-26T16:15:26.741Z,4.89
2019-02-26T16:20:34.568Z,5.14
2019-02-26T16:25:42.148Z,5.75
2019-02-26T16:30:49.825Z,5.75
2019-02-26T16:35:57.886Z,6.24
2019-02-26T16:41:04.936Z,6.57
2019-02-26T16:46:11.734Z,7.64
2019-02-26T16:51:21.582Z,8.00
2019-02-26T16:56:26.544Z,8.77
2019-02-26T17:01:34.167Z,8.51
2019-02-26T17:06:41.770Z,9.49
2019-02-26T17:11:49.419Z,10.02
2019-02-26T17:16:57.041Z,10.07
2019-02-26T17:22:05.185Z,9.69
2019-02-26T17:27:11.821Z,9.87
2019-02-26T17:32:19.518Z,10.39
2019-02-26T17:37:27.124Z,9.32
2019-02-26T17:42:34.830Z,9.27
2019-02-26T17:47:42.439Z,9.68
2019-02-26T17:52:50.055Z,9.94
2019-02-26T17:57:57.648Z,9.72
2019-02-26T18:03:07.342Z,10.57
2019-02-26T18:08:14.374Z,10.84
2019-02-26T18:13:20.705Z,9.84
2019-02-26T18:18:26.873Z,10.07
2019-02-26T18:23:37.510Z,10.60
2019-02-26T18:28:41.698Z,11.94
2019-02-26T18:33:49.387Z,11.61
2019-02-26T18:38:56.963Z,12.63
2019-02-26T18:44:04.599Z,11.97
2019-02-26T18:49:12.215Z,12.27
2019-02-26T18:54:20.314Z,13.00
2019-02-26T18:59:27.053Z,11.77
2019-02-26T19:04:34.701Z,11.86
2019-02-26T19:09:42.698Z,12.01
2019-02-26T19:14:49.456Z,11.84
2019-02-26T19:19:57.052Z,13.04
2019-02-26T19:25:06.805Z,12.89
2019-02-26T19:30:11.818Z,12.61
2019-02-26T19:35:19.610Z,11.95
2019-02-26T19:40:27.178Z,12.29
2019-02-26T19:45:34.851Z,13.76
2019-02-26T19:50:45.421Z,12.38
2019-02-26T19:55:50.013Z,11.91
2019-02-26T20:00:56.901Z,13.46
2019-02-26T20:06:04.521Z,12.58
2019-02-26T20:11:12.166Z,12.93
2019-02-26T20:16:19.990Z,12.29
2019-02-26T20:21:27.606Z,11.77
2019-02-26T20:26:35.227Z,12.30
2019-02-26T20:31:42.862Z,12.66
2019-02-26T20:36:51.178Z,11.79
2019-02-26T20:41:57.733Z,13.32
2019-02-26T20:47:05.349Z,12.28
2019-02-26T20:52:13.049Z,12.58
2019-02-26T20:57:20.765Z,12.45
2019-02-26T21:02:28.420Z,12.89
2019-02-26T21:07:36.088Z,12.70
2019-02-26T21:12:43.708Z,12.85
2019-02-26T21:17:51.388Z,11.72
2019-02-26T21:22:59.001Z,12.67
2019-02-26T21:28:06.679Z,12.79
2019-02-26T21:33:14.314Z,11.77
2019-02-26T21:38:22.010Z,13.01
2019-02-26T21:43:29.599Z,12.77
2019-02-26T21:48:37.331Z,13.75
2019-02-26T21:53:46.685Z,13.96
2019-02-26T21:58:52.212Z,12.66
2019-02-26T22:03:59.870Z,12.39
2019-02-26T22:09:07.575Z,12.17
2019-02-26T22:14:15.198Z,11.78
2019-02-26T22:19:22.891Z,11.53
2019-02-26T22:24:30.508Z,10.24
2019-02-26T22:29:38.203Z,9.32
2019-02-26T22:34:45.795Z,8.98
2019-02-26T22:39:53.637Z,9.44
2019-02-26T22:45:00.559Z,9.00
2019-02-26T22:50:08.276Z,9.45
2019-02-26T22:55:17.160Z,8.45
2019-02-26T23:00:23.067Z,7.76
2019-02-26T23:05:30.679Z,7.73
2019-02-26T23:10:38.333Z,6.80
2019-02-26T23:15:46.071Z,6.92
2019-02-26T23:20:53.555Z,7.36
2019-02-26T23:26:01.168Z,7.16
2019-02-26T23:31:08.821Z,6.51
2019-02-26T23:36:16.426Z,6.11
2019-02-26T23:41:24.120Z,6.72
2019-02-26T23:46:31.778Z,6.94
2019-02-26T23:51:39.466Z,7.01
2019-02-26T23:56:47.078Z,6.76
